nws-alerts: Checking more than four warning/county codes can delay the loading of your pages. You should use a cron job to get the data.

Nearby METAR Weather Reports

 

KETB - West Bend, WI
Distance from station: E 4mi, 6km
Updated: 07/09/2020 2:55am
Mist, Clear
Mist, Clear
 Wind from calm
Wind: Calm
Temperature: 72°F , 22°C
Dew Point: 72°F , 22°C
Humidity: 100%
Barometer: 29.89 inHg , 1012.2 hPa
Summary: Mist
Clouds: Clear
Visibility: 5 miles , 8 km
2020/07/09 07:55 KETB 090755Z AUTO 00000KT 5SM BR CLR 22/22 A2989 RMK AO2
KFLD - Fond Du Lac, WI
Distance from station: W 34mi, 54km
Updated: 07/09/2020 2:53am
Clear
Clear
 Wind from SSW
Wind: SSW 5 mph , 7 km/h
Temperature: 75°F , 24°C
Dew Point: 70°F , 21°C
Humidity: 83%
Barometer: 29.88 inHg , 1011.9 hPa
Clouds: Clear
Visibility: 10 miles , 16 km
2020/07/09 07:53 KFLD 090753Z AUTO 20004KT 10SM CLR 24/21 A2988 RMK AO2 SLP113 T02390211 TSNO
 
KSBM - Sheboygan, WI
Distance from station: NE 36mi, 57km
Updated: 07/09/2020 2:53am
Mist, Clear
Mist, Clear
 Wind from calm
Wind: Calm
Temperature: 73°F , 23°C
Dew Point: 72°F , 22°C
Humidity: 94%
Barometer: 29.87 inHg , 1011.5 hPa
Summary: Mist
Clouds: Clear
Visibility: 4 miles , 6 km
2020/07/09 07:53 KSBM 090753Z AUTO 00000KT 4SM BR CLR 23/22 A2987 RMK AO2 SLP111 T02330217
KMKE - Milwaukee, WI
Distance from station: S 44mi, 70km
Updated: 07/09/2020 2:52am
Few Clouds
Few Clouds
 Wind from SSW
Wind: SSW 5 mph , 7 km/h
Temperature: 77°F , 25°C
Dew Point: 68°F , 20°C
Humidity: 74%
Barometer: 29.87 inHg , 1011.5 hPa
Clouds: Few Clouds
Visibility: 10 miles , 16 km
Cloud details: Few Clouds 25000 ft
2020/07/09 07:52 KMKE 090752Z 20004KT 10SM FEW250 25/20 A2987 RMK AO2 SLP107 T02500200
 
KOSH - Oshkosh, WI
Distance from station: WNW 52mi, 83km
Updated: 07/09/2020 2:53am
Clear
Clear
 Wind from SSW
Wind: SSW 5 mph , 7 km/h
Temperature: 73°F , 23°C
Dew Point: 72°F , 22°C
Humidity: 94%
Barometer: 29.88 inHg , 1011.9 hPa
Clouds: Clear
Visibility: 7 miles , 11 km
2020/07/09 07:53 KOSH 090753Z AUTO 20004KT 7SM CLR 23/22 A2988 RMK AO2 SLP101 T02330217 TSNO
KENW - Kenosha, WI
Distance from station: SSE 69mi, 111km
Updated: 07/09/2020 2:53am
Clear
Clear
 Wind from calm
Wind: Calm
Temperature: 73°F , 23°C
Dew Point: 68°F , 20°C
Humidity: 83%
Barometer: 29.88 inHg , 1011.9 hPa
Clouds: Clear
Visibility: 10 miles , 16 km
2020/07/09 07:53 KENW 090753Z AUTO 00000KT 10SM CLR 23/20 A2988 RMK AO2 SLP113 T02280200
 
KMSN - Madison, WI
Distance from station: SW 69mi, 111km
Updated: 07/09/2020 2:53am
Clear
Clear
 Wind from calm
Wind: Calm
Temperature: 73°F , 23°C
Dew Point: 70°F , 21°C
Humidity: 89%
Barometer: 29.86 inHg , 1011.2 hPa
Clouds: Clear
Visibility: 10 miles , 16 km
2020/07/09 07:53 KMSN 090753Z AUTO 00000KT 10SM CLR 23/21 A2986 RMK AO2 SLP105 T02280206
KSAW - Marquette, MI
Distance from station: N 262mi, 421km
Updated: 07/09/2020 2:59am
Thunderstorm rain, Overcast
Thunderstorm rain, Overcast
 Wind from WNW
Wind: WNW 16 mph , 26 km/h, Gust: 22 mph , 35 km/h
Temperature: 68°F , 20°C
Dew Point: 64°F , 18°C
Humidity: 88%
Barometer: 29.91 inHg , 1012.9 hPa
Summary: Thunderstorm Rain
Clouds: Overcast
Visibility: 10 miles , 16 km
Cloud details: Overcast 10000 ft
2020/07/09 07:59 KSAW 090759Z AUTO 29014G19KT 10SM TSRA OVC100 20/18 A2991 RMK AO2 LTG DSNT ALQS T02020183
 
KIMT - Iron Mountain, MI
Distance from station: NNW 201mi, 323km
Updated: 07/09/2020 2:54am
Light rain, Overcast
Light rain, Overcast
 Wind from NNW
Wind: NNW 9 mph , 15 km/h
Temperature: 66°F , 19°C
Dew Point: 64°F , 18°C
Humidity: 94%
Barometer: 29.92 inHg , 1013.2 hPa
Summary: Light rain
Clouds: Overcast
Visibility: 10 miles , 16 km
Cloud details: Few Clouds 6000 ft
Mostly cloudy 7500 ft
Overcast 12000 ft
2020/07/09 07:54 KIMT 090754Z AUTO 33008KT 10SM -RA FEW060 BKN075 OVC120 19/18 A2992 RMK AO2 LTG DSNT SE TSE09 SLP125 P0003 T01940178
KGRB - Green Bay, WI
Distance from station: NNW 87mi, 140km
Updated: 07/09/2020 2:53am
Mist, Partly cloudy
Mist, Partly cloudy
 Wind from NW
Wind: NW 7 mph , 11 km/h
Temperature: 75°F , 24°C
Dew Point: 72°F , 22°C
Humidity: 89%
Barometer: 29.91 inHg , 1012.9 hPa
Summary: Mist
Clouds: Partly cloudy
Visibility: 4 miles , 6 km
Cloud details: Partly cloudy 12000 ft
2020/07/09 07:53 KGRB 090753Z AUTO 32006KT 4SM BR SCT120 24/22 A2991 RMK AO2 LTG DSNT N AND NW PRESRR SLP122 T02390222
 
KAUW - Wausau, WI
Distance from station: NW 155mi, 249km
Updated: 07/09/2020 2:54am
Mostly cloudy
Mostly cloudy
 Wind from calm
Wind: Calm
Temperature: 66°F , 19°C
Dew Point: 64°F , 18°C
Humidity: 94%
Barometer: 29.89 inHg , 1012.2 hPa
Clouds: Mostly cloudy
Visibility: 10 miles , 16 km
Cloud details: Few Clouds 2700 ft
Partly cloudy 7000 ft
Mostly cloudy 8500 ft
2020/07/09 07:54 KAUW 090754Z AUTO 00000KT 10SM FEW027 SCT070 BKN085 19/18 A2989 RMK AO2 RAB03E50 TSE05B08E24 SLP117 P0014 T01890178
KORD - Chicago O'Hare, IL
Distance from station: S 113mi, 181km
Updated: 07/09/2020 2:51am
Mostly cloudy
Mostly cloudy
 Wind from calm
Wind: Calm
Temperature: 79°F , 26°C
Dew Point: 70°F , 21°C
Humidity: 74%
Barometer: 29.89 inHg , 1012.2 hPa
Clouds: Mostly cloudy
Visibility: 10 miles , 16 km
Cloud details: Partly cloudy 18000 ft
Mostly cloudy 25000 ft
2020/07/09 07:51 KORD 090751Z 00000KT 10SM SCT180 BKN250 26/21 A2989 RMK AO2 SLP113 T02560206 $
 
KVOK - WIANG Volk Field, Camp Douglas, WI
Distance from station: WNW 120mi, 193km
Updated: 07/09/2020 2:56am
Clear
Clear
 Wind from calm
Wind: Calm
Temperature: 72°F , 22°C
Dew Point: 72°F , 22°C
Humidity: 100%
Barometer: 29.86 inHg , 1011.2 hPa
Clouds: Clear
Visibility: 9 miles , 14 km
2020/07/09 07:56 KVOK 090756Z AUTO 00000KT 9SM CLR 22/22 A2986 RMK AO2 SLP108 T02210221
KLNR - Lone Rock, WI
Distance from station: W 114mi, 183km
Updated: 07/09/2020 2:56am
Clear
Clear
 Wind from E
Wind: E 3 mph , 6 km/h
Temperature: 73°F , 23°C
Dew Point: 72°F , 22°C
Humidity: 94%
Barometer: 29.86 inHg , 1011.2 hPa
Clouds: Clear
Visibility: 9 miles , 14 km
2020/07/09 07:56 KLNR 090756Z AUTO 10003KT 9SM CLR 23/22 A2986 RMK AO2 SLP099 T02330222 $